Time;durP1;ratioP1;P1;durP2;ratioP2;P2;SDS_P1;SDS_P2;PMS_P1;PMS_P2;Temp;Humidity;BMP_temperature;BMP_pressure;BME280_temperature;BME280_humidity;BME280_pressure;Samples;Min_cycle;Max_cycle;Signal;HPM_P1;HPM_P2
2022/02/16 00:00:53;;;;;;;8.43;1.58;;;;;;;;;;4955055;28;20486;-74
2022/02/16 00:03:19;;;;;;;8.75;1.95;;;;;;;;;;4968761;28;20038;-73
2022/02/16 00:05:45;;;;;;;11.20;1.90;;;;;;;;;;4964133;28;20027;-73
2022/02/16 00:08:12;;;;;;;16.20;2.17;;;;;;;;;;4955612;28;20073;-73
2022/02/16 00:10:38;;;;;;;10.02;1.90;;;;;;;;;;4958524;28;20242;-73
2022/02/16 00:13:04;;;;;;;10.02;1.98;;;;;;;;;;4963036;28;20025;-73
2022/02/16 00:15:30;;;;;;;11.40;2.08;;;;;;;;;;4962897;28;20499;-73
2022/02/16 00:17:56;;;;;;;8.35;1.83;;;;;;;;;;4966161;28;20027;-73
2022/02/16 00:20:22;;;;;;;11.23;1.30;;;;;;;;;;4965139;28;20062;-73
2022/02/16 00:22:49;;;;;;;10.55;1.27;;;;;;;;;;4965186;28;20240;-73
2022/02/16 00:25:15;;;;;;;5.82;1.25;;;;;;;;;;4967906;28;20041;-73
2022/02/16 00:27:41;;;;;;;17.17;1.88;;;;;;;;;;4968309;28;20033;-73
2022/02/16 00:30:10;;;;;;;7.60;1.45;;;;;;;;;;4963572;28;20118;-73
2022/02/16 00:32:36;;;;;;;12.55;2.25;;;;;;;;;;4961577;28;20062;-73
2022/02/16 00:35:02;;;;;;;8.70;1.65;;;;;;;;;;4965737;28;20110;-73
2022/02/16 00:37:29;;;;;;;9.75;1.80;;;;;;;;;;4962388;28;20046;-73
2022/02/16 00:39:55;;;;;;;7.47;1.30;;;;;;;;;;4962192;28;20023;-73
2022/02/16 00:42:21;;;;;;;4.22;1.58;;;;;;;;;;4961060;28;20047;-73
2022/02/16 00:44:47;;;;;;;16.85;2.08;;;;;;;;;;4957645;28;20403;-73
2022/02/16 00:47:13;;;;;;;8.18;1.65;;;;;;;;;;4960353;28;20027;-73
2022/02/16 00:49:39;;;;;;;9.60;2.35;;;;;;;;;;4961375;28;20037;-73
2022/02/16 00:52:06;;;;;;;13.90;2.05;;;;;;;;;;4958709;28;20037;-73
2022/02/16 00:54:33;;;;;;;8.52;1.48;;;;;;;;;;4968195;28;20158;-73
2022/02/16 00:57:01;;;;;;;6.78;1.75;;;;;;;;;;4961347;28;20035;-73
2022/02/16 00:59:27;;;;;;;6.05;1.35;;;;;;;;;;4960930;28;20045;-73
2022/02/16 01:01:54;;;;;;;15.57;1.60;;;;;;;;;;4960768;28;20031;-73
2022/02/16 01:04:21;;;;;;;9.13;2.20;;;;;;;;;;4959116;28;20025;-73
2022/02/16 01:06:47;;;;;;;8.88;1.77;;;;;;;;;;4962574;28;20034;-73
2022/02/16 01:09:13;;;;;;;11.70;2.67;;;;;;;;;;4957948;28;20097;-73
2022/02/16 01:11:40;;;;;;;10.80;1.98;;;;;;;;;;4960581;28;20585;-73
2022/02/16 01:14:06;;;;;;;12.65;1.80;;;;;;;;;;4962394;28;20026;-73
2022/02/16 01:16:33;;;;;;;11.60;2.30;;;;;;;;;;4958671;28;20023;-73
2022/02/16 01:18:59;;;;;;;17.17;2.42;;;;;;;;;;4961305;28;20031;-73
2022/02/16 01:21:26;;;;;;;9.43;1.92;;;;;;;;;;4958784;28;20101;-73
2022/02/16 01:23:52;;;;;;;7.10;2.15;;;;;;;;;;4961442;28;20403;-73
2022/02/16 01:26:19;;;;;;;11.75;1.85;;;;;;;;;;4957413;28;20091;-73
2022/02/16 01:28:45;;;;;;;15.73;2.72;;;;;;;;;;4958157;28;20058;-73
2022/02/16 01:31:11;;;;;;;12.23;1.80;;;;;;;;;;4958773;28;20027;-73
2022/02/16 01:33:37;;;;;;;11.00;2.28;;;;;;;;;;4958390;28;20027;-73
2022/02/16 01:36:05;;;;;;;15.40;2.20;;;;;;;;;;4960152;28;20027;-73
2022/02/16 01:38:31;;;;;;;13.60;1.88;;;;;;;;;;4959158;28;20027;-73
2022/02/16 01:40:57;;;;;;;13.00;2.08;;;;;;;;;;4959826;28;20045;-73
2022/02/16 01:43:23;;;;;;;8.98;1.67;;;;;;;;;;4957799;28;20082;-73
2022/02/16 01:45:50;;;;;;;13.82;1.90;;;;;;;;;;4959843;28;20027;-73
2022/02/16 01:48:16;;;;;;;8.85;1.67;;;;;;;;;;4954116;28;20471;-73
2022/02/16 01:50:42;;;;;;;11.05;2.28;;;;;;;;;;4960195;28;20102;-73
2022/02/16 01:53:08;;;;;;;13.30;2.20;;;;;;;;;;4960474;28;20031;-73
2022/02/16 01:55:35;;;;;;;11.85;2.10;;;;;;;;;;4960239;28;20035;-73
2022/02/16 01:58:01;;;;;;;8.40;1.85;;;;;;;;;;4957512;28;20042;-73
2022/02/16 02:00:27;;;;;;;10.20;1.70;;;;;;;;;;4961989;28;20031;-73
2022/02/16 02:02:54;;;;;;;9.77;1.48;;;;;;;;;;4959137;28;20471;-73
2022/02/16 02:05:20;;;;;;;8.77;1.42;;;;;;;;;;4958522;28;20039;-73
2022/02/16 02:07:46;;;;;;;11.88;1.55;;;;;;;;;;4960577;28;20422;-73
2022/02/16 02:10:12;;;;;;;5.57;1.60;;;;;;;;;;4955888;28;20800;-73
2022/02/16 02:12:46;;;;;;;14.13;1.88;;;;;;;;;;4964400;28;20035;-73
2022/02/16 02:15:12;;;;;;;13.43;2.05;;;;;;;;;;4958566;28;20027;-73
2022/02/16 02:17:39;;;;;;;16.48;2.92;;;;;;;;;;4960049;28;20475;-73
2022/02/16 02:20:05;;;;;;;12.45;1.60;;;;;;;;;;4958650;28;20166;-73
2022/02/16 02:22:31;;;;;;;8.52;1.83;;;;;;;;;;4959465;28;20117;-73
2022/02/16 02:24:57;;;;;;;10.85;1.98;;;;;;;;;;4956910;28;20029;-73
2022/02/16 02:27:24;;;;;;;9.90;1.45;;;;;;;;;;4960847;28;20070;-73
2022/02/16 02:29:50;;;;;;;15.32;2.45;;;;;;;;;;4960733;28;20787;-73
2022/02/16 02:32:17;;;;;;;10.77;2.13;;;;;;;;;;4963239;28;20034;-73
2022/02/16 02:34:43;;;;;;;7.70;1.30;;;;;;;;;;4961549;28;20065;-73
2022/02/16 02:37:09;;;;;;;6.68;1.35;;;;;;;;;;4957494;28;20029;-73
2022/02/16 02:39:35;;;;;;;9.52;1.58;;;;;;;;;;4958054;28;20026;-73
2022/02/16 02:42:01;;;;;;;17.02;2.70;;;;;;;;;;4958938;28;20404;-73
2022/02/16 02:44:27;;;;;;;6.45;1.88;;;;;;;;;;4956700;28;20595;-73
2022/02/16 02:46:53;;;;;;;5.75;1.38;;;;;;;;;;4958117;28;20034;-73
2022/02/16 02:49:20;;;;;;;6.25;1.80;;;;;;;;;;4958002;28;20036;-73
2022/02/16 02:51:46;;;;;;;8.50;1.65;;;;;;;;;;4956696;28;20039;-73
2022/02/16 02:54:12;;;;;;;9.18;2.35;;;;;;;;;;4956483;28;20027;-73
2022/02/16 02:56:38;;;;;;;5.32;1.30;;;;;;;;;;4960443;28;20045;-73
2022/02/16 02:59:05;;;;;;;8.93;1.83;;;;;;;;;;4957512;28;20081;-73
2022/02/16 03:01:31;;;;;;;10.27;2.08;;;;;;;;;;4958381;28;20031;-73
2022/02/16 03:03:57;;;;;;;6.38;1.48;;;;;;;;;;4957249;28;20054;-73
2022/02/16 03:06:23;;;;;;;11.43;1.33;;;;;;;;;;4959406;28;20034;-73
2022/02/16 03:08:49;;;;;;;8.70;1.30;;;;;;;;;;4959411;28;20019;-73
2022/02/16 03:11:19;;;;;;;7.38;1.40;;;;;;;;;;4956644;28;20475;-73
2022/02/16 03:13:46;;;;;;;6.30;1.55;;;;;;;;;;4956489;28;20023;-73
2022/02/16 03:16:12;;;;;;;6.88;1.40;;;;;;;;;;4955278;28;20031;-73
2022/02/16 03:18:38;;;;;;;6.78;1.65;;;;;;;;;;4963389;28;20027;-73
2022/02/16 03:21:04;;;;;;;11.10;1.48;;;;;;;;;;4965390;28;20524;-73
2022/02/16 03:23:30;;;;;;;8.90;2.00;;;;;;;;;;4957031;28;20402;-73
2022/02/16 03:25:56;;;;;;;9.98;2.25;;;;;;;;;;4980482;28;20080;-73
2022/02/16 03:28:22;;;;;;;12.50;2.05;;;;;;;;;;4964038;28;20031;-73
2022/02/16 03:30:49;;;;;;;8.75;1.75;;;;;;;;;;4964304;28;20037;-73
2022/02/16 03:33:15;;;;;;;14.70;2.42;;;;;;;;;;4966495;28;20390;-73
2022/02/16 03:35:41;;;;;;;10.95;2.42;;;;;;;;;;4960316;28;20027;-73
2022/02/16 03:38:07;;;;;;;9.43;1.70;;;;;;;;;;4962009;28;20019;-73
2022/02/16 03:40:33;;;;;;;15.63;1.70;;;;;;;;;;4959871;28;20665;-73
2022/02/16 03:43:00;;;;;;;10.55;1.88;;;;;;;;;;4964093;28;20499;-73
2022/02/16 03:45:27;;;;;;;10.13;2.20;;;;;;;;;;4960617;28;20026;-73
2022/02/16 03:47:53;;;;;;;11.02;1.48;;;;;;;;;;4963635;28;20058;-73
2022/02/16 03:50:22;;;;;;;12.98;1.98;;;;;;;;;;4961481;28;20114;-73
2022/02/16 03:52:49;;;;;;;6.35;1.58;;;;;;;;;;4954992;28;20085;-73
2022/02/16 03:55:15;;;;;;;9.65;1.58;;;;;;;;;;4956250;28;20348;-72
2022/02/16 03:57:41;;;;;;;9.02;1.85;;;;;;;;;;4957992;28;20722;-74
2022/02/16 04:00:09;;;;;;;15.43;2.28;;;;;;;;;;4958516;28;20561;-74
2022/02/16 04:02:35;;;;;;;16.95;2.35;;;;;;;;;;4953090;28;20318;-73
2022/02/16 04:05:01;;;;;;;13.13;1.80;;;;;;;;;;4956788;28;20085;-73
2022/02/16 04:07:27;;;;;;;10.02;1.70;;;;;;;;;;4964030;28;20562;-73
2022/02/16 04:09:53;;;;;;;8.30;1.63;;;;;;;;;;4964600;28;20106;-73
2022/02/16 04:12:19;;;;;;;6.07;1.10;;;;;;;;;;4964458;28;20645;-73
2022/02/16 04:14:46;;;;;;;9.50;2.22;;;;;;;;;;4962115;28;20137;-74
2022/02/16 04:17:12;;;;;;;9.88;2.13;;;;;;;;;;4963227;28;20094;-73
2022/02/16 04:19:38;;;;;;;11.73;2.03;;;;;;;;;;4964423;28;20023;-73
2022/02/16 04:22:04;;;;;;;7.90;2.15;;;;;;;;;;4963876;28;20482;-73
2022/02/16 04:24:30;;;;;;;9.00;1.50;;;;;;;;;;4964292;28;20030;-73
2022/02/16 04:26:56;;;;;;;8.38;1.40;;;;;;;;;;4962192;28;20030;-73
2022/02/16 04:29:22;;;;;;;7.22;1.27;;;;;;;;;;4963124;28;20085;-72
2022/02/16 04:31:49;;;;;;;7.07;1.85;;;;;;;;;;4963661;28;20031;-73
2022/02/16 04:34:15;;;;;;;10.32;1.63;;;;;;;;;;4963759;28;20030;-73
2022/02/16 04:36:41;;;;;;;7.57;1.75;;;;;;;;;;4962135;28;20039;-73
2022/02/16 04:39:07;;;;;;;8.55;1.92;;;;;;;;;;4963365;28;20035;-74
2022/02/16 04:41:33;;;;;;;10.82;1.80;;;;;;;;;;4964006;28;20043;-73
2022/02/16 04:43:59;;;;;;;6.47;1.70;;;;;;;;;;4954735;28;20031;-73
2022/02/16 04:46:25;;;;;;;11.20;2.45;;;;;;;;;;4944230;29;20038;-73
2022/02/16 04:48:52;;;;;;;8.43;1.67;;;;;;;;;;4944084;28;20078;-73
2022/02/16 04:51:18;;;;;;;8.38;1.83;;;;;;;;;;4960526;28;20031;-73
2022/02/16 04:53:44;;;;;;;5.72;1.88;;;;;;;;;;4946692;28;20035;-73
2022/02/16 04:56:10;;;;;;;5.70;1.38;;;;;;;;;;4946377;28;20488;-73
2022/02/16 04:58:36;;;;;;;7.45;1.90;;;;;;;;;;4944866;28;20034;-73
2022/02/16 05:01:02;;;;;;;9.73;2.25;;;;;;;;;;4945970;28;20035;-73
2022/02/16 05:03:28;;;;;;;13.95;1.73;;;;;;;;;;4946134;28;20078;-72
2022/02/16 05:05:55;;;;;;;5.78;1.50;;;;;;;;;;4944782;28;20114;-72
2022/02/16 05:08:21;;;;;;;9.13;1.80;;;;;;;;;;4946137;28;20035;-73
2022/02/16 05:10:47;;;;;;;7.50;1.73;;;;;;;;;;4946315;28;20065;-73
2022/02/16 05:13:13;;;;;;;9.55;2.17;;;;;;;;;;4945927;28;20031;-73
2022/02/16 05:15:39;;;;;;;11.75;2.03;;;;;;;;;;4945790;29;20043;-72
2022/02/16 05:18:05;;;;;;;9.80;1.90;;;;;;;;;;4944313;28;20642;-73
2022/02/16 05:20:31;;;;;;;7.85;1.52;;;;;;;;;;4945887;29;20297;-73
2022/02/16 05:22:58;;;;;;;11.40;2.03;;;;;;;;;;4945816;29;20031;-72
2022/02/16 05:25:24;;;;;;;9.02;1.70;;;;;;;;;;4947257;28;20106;-72
2022/02/16 05:27:50;;;;;;;8.85;1.75;;;;;;;;;;4965093;28;20089;-72
2022/02/16 05:30:16;;;;;;;13.32;2.45;;;;;;;;;;4964157;28;20451;-72
2022/02/16 05:32:43;;;;;;;6.82;1.20;;;;;;;;;;4963242;28;20587;-72
2022/02/16 05:35:10;;;;;;;8.15;1.67;;;;;;;;;;4964659;28;20037;-72
2022/02/16 05:37:37;;;;;;;8.93;1.75;;;;;;;;;;4964944;28;20034;-72
2022/02/16 05:40:03;;;;;;;10.73;1.85;;;;;;;;;;4964378;28;20084;-73
2022/02/16 05:42:29;;;;;;;7.47;1.80;;;;;;;;;;4954406;28;20043;-72
2022/02/16 05:44:55;;;;;;;13.35;1.58;;;;;;;;;;4943661;29;20471;-72
2022/02/16 05:47:22;;;;;;;9.02;1.58;;;;;;;;;;4945018;28;20031;-72
2022/02/16 05:49:48;;;;;;;7.25;1.40;;;;;;;;;;4951852;28;20407;-73
2022/02/16 05:52:14;;;;;;;7.68;1.80;;;;;;;;;;4963907;28;20054;-72
2022/02/16 05:54:40;;;;;;;7.32;2.30;;;;;;;;;;4961375;28;20023;-73
2022/02/16 05:57:07;;;;;;;10.73;1.88;;;;;;;;;;4952905;28;20715;-73
2022/02/16 05:59:34;;;;;;;10.13;1.20;;;;;;;;;;4943325;29;20039;-73
2022/02/16 06:02:03;;;;;;;10.18;1.80;;;;;;;;;;4943157;29;20634;-73
2022/02/16 06:04:31;;;;;;;4.65;1.30;;;;;;;;;;4959859;28;20030;-72
2022/02/16 06:06:58;;;;;;;7.40;1.83;;;;;;;;;;4962163;28;20479;-73
2022/02/16 06:09:24;;;;;;;8.00;1.50;;;;;;;;;;4961908;28;20109;-73
2022/02/16 06:11:50;;;;;;;5.82;1.73;;;;;;;;;;4961957;28;20030;-72
2022/02/16 06:14:16;;;;;;;19.23;1.85;;;;;;;;;;4961972;28;20027;-73
2022/02/16 06:16:42;;;;;;;8.15;2.00;;;;;;;;;;4960317;28;20467;-72
2022/02/16 06:19:08;;;;;;;7.43;1.90;;;;;;;;;;4961971;28;20383;-72
2022/02/16 06:21:35;;;;;;;8.88;1.42;;;;;;;;;;4960820;28;20047;-73
2022/02/16 06:24:01;;;;;;;11.90;2.80;;;;;;;;;;4961846;28;20038;-73
2022/02/16 06:26:27;;;;;;;11.30;2.00;;;;;;;;;;4960641;28;20034;-73
2022/02/16 06:28:53;;;;;;;6.93;1.45;;;;;;;;;;4962191;28;20026;-73
2022/02/16 06:31:19;;;;;;;7.32;1.30;;;;;;;;;;4961577;28;20050;-72
2022/02/16 06:33:45;;;;;;;12.32;2.67;;;;;;;;;;4961914;28;20027;-73
2022/02/16 06:36:12;;;;;;;11.27;1.85;;;;;;;;;;4959107;28;20037;-73
2022/02/16 06:38:38;;;;;;;10.55;2.15;;;;;;;;;;4961936;28;20785;-73
2022/02/16 06:41:04;;;;;;;7.47;1.85;;;;;;;;;;4961934;28;20134;-73
2022/02/16 06:43:31;;;;;;;7.90;1.73;;;;;;;;;;4960007;28;20035;-73
2022/02/16 06:45:57;;;;;;;12.05;1.48;;;;;;;;;;4961307;28;20027;-73
2022/02/16 06:48:23;;;;;;;11.30;1.63;;;;;;;;;;4956063;28;20388;-72
2022/02/16 06:50:49;;;;;;;8.35;1.77;;;;;;;;;;4944249;28;20027;-72
2022/02/16 06:53:16;;;;;;;12.98;2.13;;;;;;;;;;4944742;29;20058;-71
2022/02/16 06:55:43;;;;;;;9.75;2.10;;;;;;;;;;4944695;29;20214;-73
2022/02/16 06:58:09;;;;;;;14.30;3.17;;;;;;;;;;4944422;28;20050;-73
2022/02/16 07:00:35;;;;;;;12.27;4.00;;;;;;;;;;4942983;28;20644;-73
2022/02/16 07:03:01;;;;;;;8.32;2.60;;;;;;;;;;4960171;28;20043;-73
2022/02/16 07:05:28;;;;;;;6.28;1.83;;;;;;;;;;4963267;28;20471;-75
2022/02/16 07:07:54;;;;;;;9.27;2.75;;;;;;;;;;4962885;28;20117;-75
2022/02/16 07:10:20;;;;;;;11.15;1.80;;;;;;;;;;4963236;28;20511;-75
2022/02/16 07:12:46;;;;;;;13.85;2.33;;;;;;;;;;4955392;28;20499;-74
2022/02/16 07:15:13;;;;;;;9.18;2.17;;;;;;;;;;4961580;28;20035;-75
2022/02/16 07:17:40;;;;;;;14.52;2.85;;;;;;;;;;4963109;28;20463;-75
2022/02/16 07:20:08;;;;;;;12.43;3.90;;;;;;;;;;4961024;28;20101;-75
2022/02/16 07:22:38;;;;;;;17.25;4.07;;;;;;;;;;4961667;28;20058;-75
2022/02/16 07:25:04;;;;;;;12.18;4.88;;;;;;;;;;4957914;28;20433;-77
2022/02/16 07:27:30;;;;;;;17.65;6.38;;;;;;;;;;4962011;28;20031;-73
2022/02/16 07:29:56;;;;;;;9.40;3.58;;;;;;;;;;4962278;28;20018;-75
2022/02/16 07:32:23;;;;;;;12.25;3.53;;;;;;;;;;4962590;28;20147;-75
2022/02/16 07:34:49;;;;;;;7.63;1.95;;;;;;;;;;4962864;28;20030;-76
2022/02/16 07:37:15;;;;;;;8.55;2.10;;;;;;;;;;4960762;28;20390;-76
2022/02/16 07:39:41;;;;;;;6.03;1.60;;;;;;;;;;4962610;28;20031;-76
2022/02/16 07:42:07;;;;;;;7.55;1.92;;;;;;;;;;4962796;28;20096;-75
2022/02/16 07:44:33;;;;;;;10.38;2.10;;;;;;;;;;4952256;28;20035;-76
2022/02/16 07:47:02;;;;;;;10.35;1.65;;;;;;;;;;4943689;28;20039;-75
2022/02/16 07:49:28;;;;;;;13.65;2.42;;;;;;;;;;4943557;29;20055;-76
2022/02/16 07:51:54;;;;;;;8.88;2.13;;;;;;;;;;4941709;29;20063;-76
2022/02/16 07:54:20;;;;;;;10.05;2.35;;;;;;;;;;4943234;29;20027;-75
2022/02/16 07:56:47;;;;;;;9.15;2.03;;;;;;;;;;4943233;28;20066;-77
2022/02/16 07:59:13;;;;;;;8.73;2.13;;;;;;;;;;4961455;28;20027;-75
2022/02/16 08:01:39;;;;;;;9.88;1.77;;;;;;;;;;4962550;28;20199;-77
2022/02/16 08:04:17;;;;;;;4.00;1.50;;;;;;;;;;4962788;28;20075;-75
2022/02/16 08:06:47;;;;;;;10.40;2.00;;;;;;;;;;4961993;28;20403;-74
2022/02/16 08:09:14;;;;;;;9.80;1.67;;;;;;;;;;4960869;28;20019;-76
2022/02/16 08:11:41;;;;;;;3.92;1.42;;;;;;;;;;4964054;28;20038;-76
2022/02/16 08:14:07;;;;;;;8.40;2.60;;;;;;;;;;4966543;28;20026;-77
2022/02/16 08:16:34;;;;;;;8.30;1.88;;;;;;;;;;4966484;28;20106;-76
2022/02/16 08:19:01;;;;;;;4.93;1.50;;;;;;;;;;4966214;28;20062;-79
2022/02/16 08:21:27;;;;;;;6.43;1.25;;;;;;;;;;4964224;28;20075;-75
2022/02/16 08:23:54;;;;;;;5.82;1.13;;;;;;;;;;4965614;28;20025;-75
2022/02/16 08:26:20;;;;;;;3.15;0.93;;;;;;;;;;4965027;28;20251;-78
2022/02/16 08:28:46;;;;;;;6.07;1.27;;;;;;;;;;4963308;28;20097;-73
2022/02/16 08:31:12;;;;;;;3.90;0.80;;;;;;;;;;4965699;28;20072;-76
2022/02/16 08:33:38;;;;;;;3.65;0.82;;;;;;;;;;4965559;28;20079;-75
2022/02/16 08:36:05;;;;;;;6.32;0.90;;;;;;;;;;4965674;28;20058;-74
2022/02/16 08:38:32;;;;;;;5.30;1.20;;;;;;;;;;4964121;28;20027;-78
2022/02/16 08:40:58;;;;;;;4.22;0.85;;;;;;;;;;4964039;28;20054;-80
2022/02/16 08:43:26;;;;;;;5.95;0.90;;;;;;;;;;4953823;28;20050;-72
2022/02/16 08:45:53;;;;;;;4.95;1.73;;;;;;;;;;4964190;28;20036;-73
2022/02/16 08:48:23;;;;;;;11.50;2.03;;;;;;;;;;4961208;28;20031;-72
2022/02/16 08:50:49;;;;;;;6.30;2.65;;;;;;;;;;4962098;28;20046;-72
2022/02/16 08:53:15;;;;;;;4.20;1.08;;;;;;;;;;4963391;28;20681;-74
2022/02/16 08:55:42;;;;;;;6.30;1.23;;;;;;;;;;4961925;28;20027;-73
2022/02/16 08:58:09;;;;;;;4.70;0.80;;;;;;;;;;4965052;28;20031;-74
2022/02/16 09:00:36;;;;;;;8.52;1.98;;;;;;;;;;4964618;28;20045;-72
2022/02/16 09:03:02;;;;;;;6.35;1.23;;;;;;;;;;4963375;28;20473;-72
2022/02/16 09:05:28;;;;;;;4.20;0.68;;;;;;;;;;4962855;28;20043;-75
2022/02/16 09:07:55;;;;;;;5.03;1.05;;;;;;;;;;4964173;28;20023;-74
2022/02/16 09:10:21;;;;;;;2.75;1.13;;;;;;;;;;4964203;28;20030;-74
2022/02/16 09:12:47;;;;;;;7.13;1.88;;;;;;;;;;4965008;28;20038;-74
2022/02/16 09:15:13;;;;;;;7.70;2.03;;;;;;;;;;4964618;28;20104;-76
2022/02/16 09:17:39;;;;;;;7.38;2.30;;;;;;;;;;4947523;28;20205;-72
2022/02/16 09:20:06;;;;;;;4.85;0.90;;;;;;;;;;4944235;28;20034;-73
2022/02/16 09:22:34;;;;;;;4.03;0.80;;;;;;;;;;4944732;28;20047;-73
2022/02/16 09:25:00;;;;;;;5.18;1.10;;;;;;;;;;4945404;29;20081;-71
2022/02/16 09:27:26;;;;;;;4.22;1.40;;;;;;;;;;4944207;29;20370;-72
2022/02/16 09:29:53;;;;;;;4.53;1.52;;;;;;;;;;4948000;28;20019;-76
2022/02/16 09:32:20;;;;;;;4.22;1.30;;;;;;;;;;4964295;28;20030;-74
2022/02/16 09:34:47;;;;;;;11.98;1.60;;;;;;;;;;4964337;28;20019;-76
2022/02/16 09:37:13;;;;;;;5.35;1.50;;;;;;;;;;4964006;28;20538;-72
2022/02/16 09:39:40;;;;;;;4.78;1.65;;;;;;;;;;4961318;28;20552;-78
2022/02/16 09:42:06;;;;;;;4.75;1.33;;;;;;;;;;4964240;28;20113;-78
2022/02/16 09:44:32;;;;;;;5.70;1.58;;;;;;;;;;4964564;28;20063;-74
2022/02/16 09:46:58;;;;;;;3.20;0.90;;;;;;;;;;4963999;28;20042;-72
2022/02/16 09:49:24;;;;;;;2.70;0.70;;;;;;;;;;4963283;28;20427;-78
2022/02/16 09:51:51;;;;;;;3.45;0.65;;;;;;;;;;4962245;28;20105;-72
2022/02/16 09:54:17;;;;;;;3.22;0.60;;;;;;;;;;4964584;28;20027;-73
2022/02/16 09:56:44;;;;;;;5.40;1.38;;;;;;;;;;4963697;28;20038;-75
2022/02/16 09:59:11;;;;;;;8.07;2.13;;;;;;;;;;4961851;28;20673;-73
2022/02/16 10:01:57;;;;;;;4.75;1.40;;;;;;;;;;4962472;28;20066;-73
2022/02/16 10:04:23;;;;;;;4.50;1.20;;;;;;;;;;4964077;28;20031;-72
2022/02/16 10:06:49;;;;;;;5.72;1.50;;;;;;;;;;4964313;28;20023;-75
2022/02/16 10:09:29;;;;;;;5.80;1.58;;;;;;;;;;4963788;28;20057;-72
2022/02/16 10:11:57;;;;;;;4.75;1.42;;;;;;;;;;4964085;28;20077;-72
2022/02/16 10:14:28;;;;;;;3.05;1.27;;;;;;;;;;4961962;28;20034;-73
2022/02/16 10:16:54;;;;;;;5.40;1.13;;;;;;;;;;4964069;28;20027;-76
2022/02/16 10:19:21;;;;;;;5.43;1.05;;;;;;;;;;4963820;28;20038;-72
2022/02/16 10:22:07;;;;;;;5.60;1.20;;;;;;;;;;4962364;28;20046;-72
2022/02/16 10:24:34;;;;;;;2.88;1.02;;;;;;;;;;4962979;28;20026;-72
2022/02/16 10:27:00;;;;;;;5.43;1.30;;;;;;;;;;4959316;28;20059;-75
2022/02/16 10:29:28;;;;;;;6.28;1.10;;;;;;;;;;4961986;28;20026;-76
2022/02/16 10:31:55;;;;;;;4.50;0.77;;;;;;;;;;4961170;28;20077;-74
2022/02/16 10:34:21;;;;;;;3.95;0.60;;;;;;;;;;4962293;28;20643;-72
2022/02/16 10:36:48;;;;;;;3.88;1.00;;;;;;;;;;4961965;28;20085;-70
2022/02/16 10:39:19;;;;;;;4.95;0.85;;;;;;;;;;4962958;28;20109;-71
2022/02/16 10:41:47;;;;;;;5.38;1.40;;;;;;;;;;4961470;28;20043;-76
2022/02/16 10:44:23;;;;;;;2.72;1.02;;;;;;;;;;4962064;28;20117;-70
2022/02/16 10:47:00;;;;;;;3.45;0.90;;;;;;;;;;4961897;28;20029;-70
2022/02/16 10:49:26;;;;;;;3.88;0.82;;;;;;;;;;4961783;28;20050;-71
2022/02/16 10:52:03;;;;;;;5.05;1.25;;;;;;;;;;4961440;28;20022;-70
2022/02/16 10:54:29;;;;;;;3.75;1.02;;;;;;;;;;4956615;28;20027;-70
2022/02/16 10:56:55;;;;;;;3.83;1.05;;;;;;;;;;4961042;28;20034;-72
2022/02/16 10:59:22;;;;;;;4.05;1.13;;;;;;;;;;4961528;28;20022;-76
2022/02/16 11:01:48;;;;;;;5.45;0.90;;;;;;;;;;4959827;28;20074;-73
2022/02/16 11:04:14;;;;;;;3.55;0.80;;;;;;;;;;4961256;28;20038;-72
2022/02/16 11:06:45;;;;;;;4.13;1.08;;;;;;;;;;4959701;28;20431;-75
2022/02/16 11:09:22;;;;;;;3.33;1.10;;;;;;;;;;4959787;28;20356;-69
2022/02/16 11:11:49;;;;;;;4.13;1.10;;;;;;;;;;4960982;28;20035;-74
2022/02/16 11:14:16;;;;;;;8.65;1.40;;;;;;;;;;4961195;28;20513;-68
2022/02/16 11:16:45;;;;;;;2.75;0.70;;;;;;;;;;4958646;28;20033;-73
2022/02/16 11:19:20;;;;;;;2.03;0.60;;;;;;;;;;4960705;28;20042;-71
2022/02/16 11:22:07;;;;;;;4.88;0.77;;;;;;;;;;4960520;28;20054;-75
2022/02/16 11:24:36;;;;;;;5.57;0.60;;;;;;;;;;4961735;28;20033;-69
2022/02/16 11:27:26;;;;;;;1.80;0.77;;;;;;;;;;4963069;28;20106;-74
2022/02/16 11:29:52;;;;;;;63.25;5.45;;;;;;;;;;4963468;28;20027;-71
2022/02/16 11:32:20;;;;;;;5.35;0.88;;;;;;;;;;4962930;28;20037;-70
2022/02/16 11:35:07;;;;;;;9.32;1.27;;;;;;;;;;4963212;28;20410;-72
2022/02/16 11:37:38;;;;;;;3.58;0.98;;;;;;;;;;4961902;28;20081;-71
2022/02/16 11:40:05;;;;;;;6.47;1.90;;;;;;;;;;4963129;28;20043;-71
2022/02/16 11:42:50;;;;;;;4.60;1.10;;;;;;;;;;4963046;28;20807;-69
2022/02/16 11:45:17;;;;;;;8.18;0.98;;;;;;;;;;4962397;28;20078;-73
2022/02/16 11:47:43;;;;;;;3.55;0.85;;;;;;;;;;4959918;28;20038;-70
2022/02/16 11:50:13;;;;;;;6.93;1.42;;;;;;;;;;4944125;29;20027;-70
2022/02/16 11:52:40;;;;;;;5.60;1.70;;;;;;;;;;4966609;28;20022;-70
2022/02/16 11:55:07;;;;;;;1.98;0.90;;;;;;;;;;4966498;28;20023;-70
2022/02/16 11:57:43;;;;;;;6.70;1.25;;;;;;;;;;4966914;28;20027;-78
2022/02/16 12:00:18;;;;;;;1.75;0.60;;;;;;;;;;4964726;28;20097;-69
2022/02/16 12:05:42;;;;;;;4.40;0.85;;;;;;;;;;4966468;28;20042;-70
2022/02/16 12:08:14;;;;;;;5.32;0.60;;;;;;;;;;4966578;28;20065;-69
2022/02/16 12:10:42;;;;;;;7.35;0.60;;;;;;;;;;4965479;28;20023;-70
2022/02/16 12:13:08;;;;;;;5.03;1.15;;;;;;;;;;4963846;28;20034;-70
2022/02/16 12:15:35;;;;;;;4.60;1.40;;;;;;;;;;4966072;28;20023;-70
2022/02/16 12:18:01;;;;;;;5.13;1.15;;;;;;;;;;4966010;28;20035;-70
2022/02/16 12:20:28;;;;;;;3.90;0.88;;;;;;;;;;4965509;28;20038;-70
2022/02/16 12:23:00;;;;;;;4.65;0.88;;;;;;;;;;4966335;28;20438;-70
2022/02/16 12:25:26;;;;;;;1.05;0.30;;;;;;;;;;4964565;28;20391;-70
2022/02/16 12:27:59;;;;;;;3.55;0.55;;;;;;;;;;4966061;28;20026;-70
2022/02/16 12:30:32;;;;;;;1.13;0.25;;;;;;;;;;4966183;28;20062;-70
2022/02/16 12:32:59;;;;;;;2.90;0.43;;;;;;;;;;4965861;28;20019;-73
2022/02/16 12:35:25;;;;;;;3.33;0.40;;;;;;;;;;4965493;28;20026;-70
2022/02/16 12:37:53;;;;;;;2.58;0.40;;;;;;;;;;4964225;28;20120;-71
2022/02/16 12:40:22;;;;;;;2.00;0.45;;;;;;;;;;4957675;28;20058;-70
2022/02/16 12:42:49;;;;;;;0.40;0.22;;;;;;;;;;4955906;28;20106;-70
2022/02/16 12:45:24;;;;;;;1.33;0.30;;;;;;;;;;4960962;28;20035;-71
2022/02/16 12:47:52;;;;;;;0.68;0.22;;;;;;;;;;4954676;28;20518;-70
2022/02/16 12:50:19;;;;;;;2.13;0.40;;;;;;;;;;4963852;28;20149;-71
2022/02/16 12:52:45;;;;;;;0.40;0.28;;;;;;;;;;4963815;28;20110;-70
2022/02/16 12:55:12;;;;;;;0.88;0.25;;;;;;;;;;4963245;28;20427;-70
2022/02/16 12:57:38;;;;;;;1.23;0.40;;;;;;;;;;4963787;28;20030;-71
2022/02/16 13:02:59;;;;;;;1.48;0.50;;;;;;;;;;4976110;28;20093;-71
2022/02/16 13:05:34;;;;;;;3.80;0.38;;;;;;;;;;4969028;28;20042;-69
2022/02/16 13:08:00;;;;;;;3.15;0.70;;;;;;;;;;4961073;28;20027;-69
2022/02/16 13:10:28;;;;;;;1.40;0.47;;;;;;;;;;4966243;28;20035;-71
2022/02/16 13:12:55;;;;;;;4.45;0.95;;;;;;;;;;4951779;28;20019;-69
2022/02/16 13:15:23;;;;;;;3.03;0.77;;;;;;;;;;4956776;28;20045;-70
2022/02/16 13:17:54;;;;;;;2.33;0.50;;;;;;;;;;4962081;28;20038;-70
2022/02/16 13:20:29;;;;;;;2.42;0.75;;;;;;;;;;4961611;28;20052;-69
2022/02/16 13:22:57;;;;;;;6.55;1.10;;;;;;;;;;4960854;28;20034;-69
2022/02/16 13:25:27;;;;;;;4.88;1.02;;;;;;;;;;4959275;28;20118;-69
2022/02/16 13:27:54;;;;;;;2.38;0.77;;;;;;;;;;4962820;28;20034;-72
2022/02/16 13:30:21;;;;;;;2.17;0.52;;;;;;;;;;4953229;28;20126;-70
2022/02/16 13:32:49;;;;;;;4.53;0.80;;;;;;;;;;4955394;28;20062;-69
2022/02/16 13:35:16;;;;;;;2.35;0.70;;;;;;;;;;4962349;28;20030;-70
2022/02/16 13:38:09;;;;;;;4.10;0.90;;;;;;;;;;4945390;28;20031;-69
2022/02/16 13:40:49;;;;;;;2.25;0.90;;;;;;;;;;4948220;28;20054;-69
2022/02/16 13:43:16;;;;;;;6.25;1.00;;;;;;;;;;4962121;28;20057;-69
2022/02/16 13:45:42;;;;;;;2.17;0.60;;;;;;;;;;4949125;28;20035;-69
2022/02/16 13:48:09;;;;;;;5.85;0.82;;;;;;;;;;4961255;28;20027;-69
2022/02/16 13:50:42;;;;;;;3.05;1.02;;;;;;;;;;4947746;28;20836;-75
2022/02/16 13:53:10;;;;;;;6.90;1.00;;;;;;;;;;4975544;28;20030;-73
2022/02/16 13:55:44;;;;;;;3.75;1.60;;;;;;;;;;4960025;28;20118;-74
2022/02/16 13:58:10;;;;;;;2.70;1.25;;;;;;;;;;4955163;28;20111;-75
2022/02/16 14:00:36;;;;;;;4.53;1.15;;;;;;;;;;4947724;28;20035;-73
2022/02/16 14:03:10;;;;;;;4.72;0.85;;;;;;;;;;4954834;28;20030;-75
2022/02/16 14:05:37;;;;;;;3.72;1.10;;;;;;;;;;4978510;28;20645;-75
2022/02/16 14:08:05;;;;;;;4.70;0.90;;;;;;;;;;4954322;28;20054;-72
2022/02/16 14:10:32;;;;;;;1.52;0.65;;;;;;;;;;4949230;28;20988;-73
2022/02/16 14:12:58;;;;;;;2.58;0.77;;;;;;;;;;4952379;28;20036;-74
2022/02/16 14:15:25;;;;;;;4.38;0.90;;;;;;;;;;4956402;28;20080;-73
2022/02/16 14:17:51;;;;;;;3.58;0.65;;;;;;;;;;4945932;28;20049;-74
2022/02/16 14:20:18;;;;;;;4.00;0.80;;;;;;;;;;4947236;28;20023;-74
2022/02/16 14:22:45;;;;;;;4.13;0.60;;;;;;;;;;4940746;28;20042;-75
2022/02/16 14:25:11;;;;;;;4.78;0.90;;;;;;;;;;4944071;28;20030;-72
2022/02/16 14:27:37;;;;;;;3.92;1.08;;;;;;;;;;4969777;28;20037;-74
2022/02/16 14:30:04;;;;;;;3.13;0.60;;;;;;;;;;4947611;28;20553;-75
2022/02/16 14:32:30;;;;;;;4.25;0.88;;;;;;;;;;4955530;28;20475;-74
2022/02/16 14:34:59;;;;;;;1.50;1.02;;;;;;;;;;4954117;28;20479;-76
2022/02/16 14:37:26;;;;;;;1.85;0.70;;;;;;;;;;4959535;28;20711;-77
2022/02/16 14:39:52;;;;;;;2.75;0.90;;;;;;;;;;4959754;28;20033;-76
2022/02/16 14:42:19;;;;;;;5.78;1.17;;;;;;;;;;4958778;28;20047;-74
2022/02/16 14:44:45;;;;;;;4.28;1.58;;;;;;;;;;4959923;28;20169;-76
2022/02/16 14:47:11;;;;;;;2.20;0.93;;;;;;;;;;4946772;28;20428;-78